Aboyne, United Kingdom
Current Conditions -  °F | °C
As of 6:50 AM on Sunday 23 Nov 2014 (Local Time) from EGPD Reporting Station
Light Rain Light Rain  
Wind Chill:   Ceiling: 4200
Heat Index:   Visibility: 6mi
Dew Point:   Wind: 5mph
Humidity: 93%   Direction: 270°W
Pressure: 29.94"   Gusts: NA
Location:  57.08°N, 2.78°W
Report Text: EGPD 230650Z 27004KT 250V310 9999 -RA BKN042 06/05 Q1014 NOSIG
Loading
Personal Weather Stations






























Interactive Weather Map New forecast layout! Learn more

10-Day Weather Forecast

Advertisements
Track Severe Weather on mobile